Flight Track Log - Related Links

Times and Time Zones

All times are in EDT time to prevent confusion due to time zone crossing. See the SWA315 flight status page for this flight to view local times or setup timezone preferences in your user account.

Time Position Orientation Groundspeed Altitude Reporting Facility
EDT Latitude Longitude Course Direction KTS MPH feet Rate Location/Type
Wed 09:26:10 AM 37.7167 -122.2667 76° East 162 186 1,900  Level Northern Cal TRACON
Wed 09:27:10 AM 37.7500 -122.3333 302° West 238 274 5,500 4,053 Climbing Northern Cal TRACON
Wed 09:28:04 AM 37.8000 -122.3500 345° North 243 280 9,600 4,211 Climbing Northern Cal TRACON
Wed 09:29:04 AM 37.8500 -122.2833 46° Northeast 299 344 13,500 3,600 Climbing Northern Cal TRACON
Wed 09:30:04 AM 37.8833 -122.1667 70° East 336 387 16,800 1,881 Climbing Northern Cal TRACON
Wed 09:31:00 AM 37.9736 -121.9318 76° East  Level FlightAware Approximate
Wed 09:31:18 AM 37.9006 -122.0197 82° East 357 411 17,700  Level Oakland Center
Wed 09:32:19 AM 37.9225 -121.8947 77° East 364 419 18,900 645 Climbing Oakland Center
Wed 09:33:19 AM 37.9444 -121.7711 77° East 361 415 19,000 1,041 Climbing Oakland Center
Wed 09:34:20 AM 37.9653 -121.6464 78° East 361 415 21,000 2,311 Climbing Oakland Center
Wed 09:35:21 AM 37.9869 -121.5197 78° East 368 423 23,700 2,557 Climbing Oakland Center
Wed 09:36:22 AM 38.0108 -121.3783 78° East 394 453 26,200 2,430 Climbing Oakland Center
Wed 09:37:22 AM 38.0350 -121.2378 78° East 408 470 28,600 2,083 Climbing Oakland Center
Wed 09:38:23 AM 38.0600 -121.0903 78° East 426 490 30,400 1,721 Climbing Oakland Center
Wed 09:39:24 AM 38.0900 -120.9394 76° East 441 507 32,100 1,820 Climbing Oakland Center
Wed 09:40:25 AM 38.1261 -120.7908 73° East 444 511 34,100 1,785 Climbing Oakland Center
Wed 09:41:25 AM 38.1622 -120.6444 73° East 439 505 35,700 1,190 Climbing Oakland Center
Wed 09:42:26 AM 38.1956 -120.4881 75° East 456 525 36,500 1,180 Climbing Oakland Center
Wed 09:43:27 AM 38.2225 -120.3264 78° East 467 537 38,100 1,180 Climbing Oakland Center
Wed 09:44:28 AM 38.2511 -120.1644 77° East 470 541 38,900 787 Climbing Oakland Center
Wed 09:45:29 AM 38.2872 -119.9619 77° East 485 558 39,700 836 Climbing Oakland Center
Wed 09:46:30 AM 38.3150 -119.7889 78° East 498 573 40,600 645 Climbing Oakland Center
Wed 09:47:30 AM 38.3453 -119.6167 77° East 498 573 41,000 198 Climbing Oakland Center
Wed 09:48:31 AM 38.3717 -119.4533 78° East 497 572 41,000  Level Oakland Center
Wed 09:49:32 AM 38.3997 -119.2842 78° East 493 567 41,000  Level Oakland Center
Wed 09:50:33 AM 38.4278 -119.1158 78° East 488 562 41,000  Level Oakland Center
Wed 09:51:34 AM 38.4553 -118.9439 78° East 494 568 41,000  Level Oakland Center
Wed 09:52:35 AM 38.4811 -118.7731 79° East 494 568 41,000  Level Oakland Center
Wed 09:53:36 AM 38.5081 -118.6044 78° East 490 564 41,000  Level Oakland Center
Wed 09:54:36 AM 38.5353 -118.4358 78° East 489 563 41,000  Level Oakland Center
Wed 09:55:37 AM 38.5675 -118.2308 79° East 492 566 41,000  Level Oakland Center
Wed 09:56:38 AM 38.5886 -118.0881 79° East 489 563 41,000  Level Oakland Center
Wed 09:57:39 AM 38.6156 -117.9175 79° East 489 563 41,000  Level Oakland Center
Wed 09:58:40 AM 38.6456 -117.7142 79° East 485 558 41,000  Level Oakland Center
Wed 09:59:41 AM 38.6706 -117.5428 79° East 485 558 41,000  Level Oakland Center
Wed 10:00:42 AM 38.6956 -117.3736 79° East 482 555 41,000  Level Oakland Center
Wed 10:01:15 AM 38.7047 -117.3056 80° East 482 555 41,000  Level Salt Lake Center
Wed 10:02:16 AM 38.7297 -117.1367 79° East 479 551 41,000  Level Salt Lake Center
Wed 10:02:43 AM 38.7444 -117.0375 79° East 475 547 41,000  Level Oakland Center
Wed 10:03:44 AM 38.7683 -116.8675 80° East 479 551 41,000  Level Oakland Center
Wed 10:04:18 AM 38.7775 -116.7997 80° East 479 551 41,000  Level Salt Lake Center
Wed 10:05:20 AM 38.8058 -116.5967 80° East 481 554 41,000  Level Salt Lake Center
Wed 10:05:46 AM 38.8156 -116.5289 80° East 481 554 41,000  Level Oakland Center
Wed 10:06:47 AM 38.8400 -116.3575 80° East 486 559 41,000  Level Oakland Center
Wed 10:07:22 AM 38.8533 -116.2561 80° East 484 557 41,000  Level Salt Lake Center
Wed 10:08:23 AM 38.8764 -116.0850 80° East 486 559 41,000  Level Salt Lake Center
Wed 10:09:24 AM 38.8983 -115.9133 81° East 487 560 41,000  Level Salt Lake Center
Wed 10:10:25 AM 38.9200 -115.7406 81° East 489 563 41,000  Level Salt Lake Center
Wed 10:11:27 AM 38.9444 -115.5672 80° East 493 567 41,000  Level Salt Lake Center
Wed 10:12:28 AM 38.9656 -115.3917 81° East 495 570 41,000  Level Salt Lake Center
Wed 10:13:29 AM 38.9925 -115.2044 79° East 502 578 41,000  Level Salt Lake Center
Wed 10:14:30 AM 39.0153 -115.0311 80° East 496 571 41,000  Level Salt Lake Center
Wed 10:15:31 AM 39.0364 -114.8589 81° East 489 563 41,000  Level Salt Lake Center
Wed 10:16:33 AM 39.0575 -114.6881 81° East 486 559 41,000  Level Salt Lake Center
Wed 10:17:34 AM 39.0789 -114.5158 81° East 487 560 41,000  Level Salt Lake Center
Wed 10:18:35 AM 39.0986 -114.3408 82° East 491 565 41,000  Level Salt Lake Center
Wed 10:19:36 AM 39.1200 -114.1669 81° East 492 566 41,000  Level Salt Lake Center
Wed 10:20:38 AM 39.1431 -113.9572 82° East 493 567 41,000  Level Salt Lake Center
Wed 10:21:39 AM 39.1642 -113.7817 81° East 495 570 41,000  Level Salt Lake Center
Wed 10:22:40 AM 39.1847 -113.6058 81° East 496 571 41,000  Level Salt Lake Center
Wed 10:23:42 AM 39.2036 -113.4294 82° East 496 571 41,000  Level Salt Lake Center
Wed 10:24:43 AM 39.2228 -113.2547 82° East 493 567 41,000  Level Salt Lake Center
Wed 10:25:45 AM 39.2425 -113.0781 82° East 496 571 41,000  Level Salt Lake Center
Wed 10:26:46 AM 39.2608 -112.9028 82° East 494 568 41,000  Level Salt Lake Center
Wed 10:27:47 AM 39.2789 -112.7269 82° East 495 570 41,000  Level Salt Lake Center
Wed 10:28:49 AM 39.2986 -112.5453 82° East 498 573 41,000  Level Salt Lake Center
Wed 10:29:50 AM 39.3281 -112.3717 78° East 497 572 41,000  Level Salt Lake Center
Wed 10:30:51 AM 39.3611 -112.1997 76° East 496 571 41,000  Level Salt Lake Center
Wed 10:31:53 AM 39.4000 -111.9928 76° East 496 571 41,000  Level Salt Lake Center
Wed 10:32:54 AM 39.4314 -111.8211 77° East 496 571 41,000  Level Salt Lake Center
Wed 10:33:56 AM 39.4631 -111.6478 77° East 496 571 41,000  Level Salt Lake Center
Wed 10:34:57 AM 39.4939 -111.4747 77° East 497 572 41,000  Level Salt Lake Center
Wed 10:35:58 AM 39.5250 -111.2997 77° East 499 574 41,000  Level Salt Lake Center
Wed 10:37:00 AM 39.5586 -111.1031 77° East 502 578 41,000  Level Salt Lake Center
Wed 10:38:01 AM 39.5878 -110.9333 77° East 504 580 41,000  Level Salt Lake Center
Wed 10:39:03 AM 39.6172 -110.7628 77° East 505 581 41,000  Level Salt Lake Center
Wed 10:40:04 AM 39.6508 -110.5633 78° East 506 582 41,000  Level Salt Lake Center
Wed 10:41:05 AM 39.6803 -110.3911 77° East 512 589 41,000  Level Salt Lake Center
Wed 10:42:07 AM 39.7153 -110.1906 77° East 511 588 41,000  Level Salt Lake Center
Wed 10:43:08 AM 39.7439 -110.0175 78° East 512 589 41,000  Level Salt Lake Center
Wed 10:44:10 AM 39.7703 -109.8444 79° East 510 587 41,000  Level Salt Lake Center
Wed 10:45:11 AM 39.8036 -109.6436 78° East 509 586 41,000  Level Salt Lake Center
Wed 10:45:51 AM 39.8214 -109.5275 79° East 507 583 41,000  Level Denver Center
Wed 10:46:53 AM 39.8489 -109.3567 78° East 504 580 41,000  Level Denver Center
Wed 10:47:14 AM 39.8631 -109.2742 77° East 501 577 41,000  Level Salt Lake Center
Wed 10:47:54 AM 39.8808 -109.1589 79° East 500 575 41,000  Level Denver Center
Wed 10:48:15 AM 39.8892 -109.1022 79° East 502 578 41,000  Level Salt Lake Center
Wed 10:49:17 AM 39.9161 -108.9325 78° East 499 574 41,000  Level Salt Lake Center
Wed 10:49:58 AM 39.9375 -108.7894 79° East 496 571 41,000  Level Denver Center
Wed 10:50:59 AM 39.9642 -108.6169 79° East 501 577 41,000  Level Denver Center
Wed 10:52:01 AM 39.9911 -108.4428 79° East 508 585 41,000  Level Denver Center
Wed 10:53:03 AM 40.0211 -108.2397 79° East 509 586 41,000  Level Denver Center
Wed 10:54:05 AM 40.0461 -108.0664 79° East 508 585 41,000  Level Denver Center
Wed 10:55:06 AM 40.0783 -107.8642 78° East 509 586 41,000  Level Denver Center
Wed 10:56:08 AM 40.1142 -107.6933 75° East 508 585 41,000  Level Denver Center
Wed 10:57:22 AM 40.1478 -107.5244 75° East 503 579 41,000  Level Denver Center
Wed 10:58:24 AM 40.1931 -107.3006 75° East 500 575 41,000  Level Denver Center
Wed 10:59:26 AM 40.2319 -107.1050 75° East 499 574 41,000  Level Denver Center
Wed 11:00:28 AM 40.2650 -106.9364 76° East 499 574 41,000 -439 Level Denver Center
Wed 11:01:29 AM 40.2992 -106.7639 75° East 504 580 40,100 -1,073 Descending Denver Center
Wed 11:02:31 AM 40.3333 -106.5842 76° East 505 581 38,800 -1,355 Descending Denver Center
Wed 11:03:33 AM 40.3692 -106.3989 76° East 496 571 37,300 -1,452 Descending Denver Center
Wed 11:04:35 AM 40.4056 -106.2047 76° East 491 565 35,800 -1,355 Descending Denver Center
Wed 11:05:37 AM 40.4361 -106.0447 76° East 491 565 34,500 -1,306 Descending Denver Center
Wed 11:06:39 AM 40.4983 -105.8856 63° Northeast 514 592 33,100 -1,415 Descending Denver Center
Wed 11:07:40 AM 40.6383 -105.9256 348° North 468 539 31,600 -1,289 Descending Denver Center
Wed 11:08:54 AM 40.6211 -106.0489 260° West 351 404 30,200 -1,139 Descending Denver Center
Wed 11:09:57 AM 40.6261 -106.2056 272° West 381 438 29,000 -576 Descending Denver Center
Wed 11:10:59 AM 40.6306 -106.3519 272° West 361 415 29,000  Level Denver Center
Wed 11:12:01 AM 40.5647 -106.4197 218° Southwest 314 361 29,000 -488 Level Denver Center
Wed 11:13:02 AM 40.4767 -106.3678 156° South 335 386 28,000 -488 Descending Denver Center
Wed 11:14:04 AM 40.4606 -106.2403 99° East 377 434 28,000 -387 Level Denver Center
Wed 11:15:06 AM 40.4508 -106.0878 95° East 386 444 27,200 -484 Descending Denver Center
Wed 11:16:08 AM 40.4494 -105.9456 91° East 397 457 27,000 -339 Descending Denver Center
Wed 11:17:10 AM 40.5531 -105.8894 22° Northeast 439 505 26,500 -774 Descending Denver Center
Wed 11:18:12 AM 40.5908 -105.9978 295° West 351 404 25,400 -726 Descending Denver Center
Wed 11:19:14 AM 40.5906 -106.1219 270° West 342 394 25,000 -194 Descending Denver Center
Wed 11:20:16 AM 40.6014 -106.2600 276° West 345 397 25,000 -48 Level Denver Center
Wed 11:21:18 AM 40.5856 -106.3714 259° West 336 387 24,900 -484 Descending Denver Center
Wed 11:22:20 AM 40.5008 -106.3906 190° South 297 342 24,000 -435 Descending Denver Center
Wed 11:23:22 AM 40.4650 -106.2950 116° Southeast 325 374 24,000 -194 Level Denver Center
Wed 11:24:24 AM 40.4553 -106.1525 95° East 358 412 23,600 -484 Descending Denver Center
Wed 11:25:26 AM 40.4467 -106.0247 95° East 353 406 23,000 -290 Descending Denver Center
Wed 11:26:28 AM 40.4831 -105.9108 67° East 366 421 23,000  Level Denver Center
Wed 11:27:30 AM 40.5694 -105.9581 337° Northwest 362 417 23,000  Level Denver Center
Wed 11:28:32 AM 40.5531 -106.0678 259° West 313 360 23,000 -290 Level Denver Center
Wed 11:29:34 AM 40.5294 -106.1744 254° West 299 344 22,400 -677 Descending Denver Center
Wed 11:30:36 AM 40.4528 -106.1947 191° South 292 336 21,600 -968 Descending Denver Center
Wed 11:31:38 AM 40.4078 -106.1000 122° Southeast 311 358 20,400 -774 Descending Denver Center
Wed 11:32:40 AM 40.4000 -105.9881 95° East 306 352 20,000 -194 Descending Denver Center
Wed 11:33:42 AM 40.3906 -105.8708 96° East 315 362 20,000  Level Denver Center
Wed 11:34:44 AM 40.3808 -105.7531 96° East 322 371 20,000  Level Denver Center
Wed 11:35:46 AM 40.3711 -105.6289 96° East 337 388 20,000  Level Denver Center
Wed 11:36:48 AM 40.3619 -105.5025 95° East 343 395 20,000  Level Denver Center
Wed 11:37:50 AM 40.3203 -105.3800 114° Southeast 312 359 20,000  Level Denver Center
Wed 11:38:52 AM 40.2661 -105.2939 129° Southeast 306 352 20,000 -1,016 Level Denver Center
Wed 11:39:54 AM 40.2061 -105.1994 130° Southeast 316 364 17,900 -1,756 Descending Denver Center
Wed 11:40:55 AM 40.1506 -105.1125 130° Southeast 309 356 16,400 -1,463 Descending Denver Center
Wed 11:41:57 AM 40.0933 -105.0247 130° Southeast 295 339 14,900 -1,452 Descending Denver Center
Wed 11:42:59 AM 40.0408 -104.9433 130° Southeast 293 337 13,400 -919 Descending Denver Center
Wed 11:44:01 AM 39.9914 -104.8661 130° Southeast 282 325 13,000 -919 Descending Denver Center
Wed 11:45:03 AM 39.9506 -104.7661 118° Southeast 290 334 11,500 -968 Descending Denver Center
Wed 11:46:05 AM 39.9092 -104.6772 121° Southeast 283 326 11,000 -242 Descending Denver Center
Wed 11:47:07 AM 39.8697 -104.5906 121° Southeast 277 319 11,000  Level Denver Center
Wed 11:48:09 AM 39.8275 -104.5067 123° Southeast 278 320 11,000 -244 Level Denver Center
Wed 11:49:10 AM 39.7531 -104.4997 176° South 248 285 10,500 -780 Descending Denver Center
Wed 11:50:12 AM 39.6872 -104.5014 181° South 239 275 9,400 -726 Descending Denver Center
Wed 11:51:14 AM 39.6175 -104.5028 181° South 236 272 9,000 -677 Descending Denver Center
Wed 11:52:16 AM 39.5517 -104.5031 180° South 236 272 8,000 -484 Descending Denver Center
Wed 11:53:18 AM 39.5161 -104.5633 233° Southwest 243 280 8,000 49 Level Denver Center
Wed 11:54:19 AM 39.5314 -104.6469 283° West 245 282 8,100  Climbing Denver Center
Wed 11:55:21 AM 39.5867 -104.6447 North 205 236 8,000 -48 Descending Denver Center
Wed 11:56:23 AM 39.6419 -104.6447 360° North 199 229 8,000  Level Denver Center
Wed 11:57:25 AM 39.6983 -104.6433 North 191 220 8,000 -484 Level Denver Center
Wed 11:58:27 AM 39.7519 -104.6433 360° North 193 222 7,000 -878 Descending Denver Center
Wed 11:59:28 AM 39.7958 -104.6428 North 150 173 6,200 -780 Descending Denver Center
Wed 12:00:30 PM 39.8333 -104.6414 North 136 157 5,400 -774 Descending Denver Center
Wed 12:02:00 PM 39.8500 -104.6667 North  Level FlightAware Approximate
Wed 12:09:00 PM 39.8617 -104.6732 North  Level Estimated
Wed 12:10:00 PM 39.8617 -104.6732 North  Level Estimated

Login

Don't have an account? Register now (free) for customized features, flight alerts, and more!